Time;durP1;ratioP1;P1;durP2;ratioP2;P2;SDS_P1;SDS_P2;PMS_P1;PMS_P2;Temp;Humidity;BMP_temperature;BMP_pressure;BME280_temperature;BME280_humidity;BME280_pressure;Samples;Min_cycle;Max_cycle;Signal;HPM_P1;HPM_P2
2022/01/30 00:01:09;;;;;;;9.40;1.00;;;;;;;;;;5047527;28;20055;-84
2022/01/30 00:03:34;;;;;;;3.63;1.08;;;;;;;;;;5024871;28;20092;-83
2022/01/30 00:05:59;;;;;;;4.47;0.90;;;;;;;;;;5024425;28;20116;-85
2022/01/30 00:08:24;;;;;;;2.80;0.70;;;;;;;;;;5039451;28;20416;-83
2022/01/30 00:10:59;;;;;;;3.92;0.88;;;;;;;;;;5022152;28;20029;-84
2022/01/30 00:13:26;;;;;;;7.15;0.80;;;;;;;;;;5023461;28;20030;-83
2022/01/30 00:15:54;;;;;;;6.70;0.80;;;;;;;;;;5024199;28;20085;-84
2022/01/30 00:21:08;;;;;;;3.20;0.63;;;;;;;;;;5042696;28;20576;-83
2022/01/30 00:23:37;;;;;;;5.32;0.90;;;;;;;;;;5024772;28;20100;-83
2022/01/30 00:26:05;;;;;;;5.90;0.98;;;;;;;;;;5039630;28;20035;-85
2022/01/30 00:28:32;;;;;;;3.85;1.15;;;;;;;;;;5022527;28;20140;-83
2022/01/30 00:30:57;;;;;;;8.43;1.02;;;;;;;;;;5039060;28;20026;-83
2022/01/30 00:33:23;;;;;;;6.72;1.05;;;;;;;;;;5020236;28;20029;-82
2022/01/30 00:35:48;;;;;;;4.95;0.68;;;;;;;;;;5038911;28;20036;-85
2022/01/30 00:38:16;;;;;;;2.05;0.50;;;;;;;;;;5037639;28;20406;-82
2022/01/30 00:40:42;;;;;;;5.70;0.65;;;;;;;;;;5021334;28;20037;-83
2022/01/30 00:43:08;;;;;;;4.65;0.90;;;;;;;;;;5041922;28;20476;-82
2022/01/30 00:45:34;;;;;;;5.50;1.05;;;;;;;;;;5040286;28;20033;-82
2022/01/30 00:47:59;;;;;;;4.38;1.05;;;;;;;;;;5018716;28;20527;-83
2022/01/30 00:50:25;;;;;;;4.47;1.00;;;;;;;;;;5021751;28;20118;-84
2022/01/30 00:52:53;;;;;;;4.85;0.50;;;;;;;;;;5035006;28;20033;-82
2022/01/30 00:55:19;;;;;;;3.97;0.60;;;;;;;;;;5018477;28;20451;-81
2022/01/30 00:57:44;;;;;;;2.13;0.88;;;;;;;;;;5036519;28;20060;-85
2022/01/30 01:00:10;;;;;;;10.23;0.93;;;;;;;;;;5036492;28;20040;-84
2022/01/30 01:02:36;;;;;;;4.90;0.95;;;;;;;;;;5036731;28;20037;-86
2022/01/30 01:05:05;;;;;;;9.07;1.20;;;;;;;;;;5034950;28;20026;-84
2022/01/30 01:07:32;;;;;;;4.88;0.95;;;;;;;;;;5019242;28;20025;-84
2022/01/30 01:10:09;;;;;;;13.50;1.33;;;;;;;;;;5017233;28;20029;-85
2022/01/30 01:25:50;;;;;;;7.90;1.50;;;;;;;;;;5034265;28;20030;-83
2022/01/30 01:28:15;;;;;;;6.97;1.33;;;;;;;;;;5034011;28;20426;-83
2022/01/30 01:30:40;;;;;;;5.22;1.00;;;;;;;;;;5016354;28;20026;-83
2022/01/30 01:33:06;;;;;;;6.97;1.38;;;;;;;;;;5036488;28;20547;-84
2022/01/30 01:35:32;;;;;;;9.77;1.73;;;;;;;;;;5033690;28;20032;-85
2022/01/30 01:37:58;;;;;;;9.07;1.27;;;;;;;;;;5032761;28;20034;-83
2022/01/30 01:40:23;;;;;;;12.95;1.70;;;;;;;;;;5013987;28;20379;-82
2022/01/30 01:42:48;;;;;;;7.68;1.20;;;;;;;;;;5015101;28;20025;-83
2022/01/30 01:45:21;;;;;;;5.43;1.20;;;;;;;;;;5031886;28;20513;-82
2022/01/30 01:47:47;;;;;;;4.28;1.13;;;;;;;;;;5022164;28;20405;-83
2022/01/30 01:50:18;;;;;;;3.22;0.75;;;;;;;;;;5041605;28;20110;-82
2022/01/30 01:52:46;;;;;;;2.83;0.80;;;;;;;;;;5024995;28;20033;-84
2022/01/30 01:55:11;;;;;;;9.68;1.60;;;;;;;;;;5042605;28;20033;-83
2022/01/30 01:57:36;;;;;;;5.68;1.10;;;;;;;;;;5042152;28;20025;-82
2022/01/30 02:00:04;;;;;;;7.97;1.73;;;;;;;;;;5040642;28;20089;-81
2022/01/30 02:02:29;;;;;;;4.32;1.00;;;;;;;;;;5042221;28;20273;-83
2022/01/30 02:04:58;;;;;;;5.78;1.10;;;;;;;;;;5039908;28;20108;-81
2022/01/30 02:10:06;;;;;;;5.60;1.30;;;;;;;;;;5040242;28;20394;-83
2022/01/30 02:12:41;;;;;;;3.40;0.90;;;;;;;;;;5043983;28;20083;-83
2022/01/30 02:25:58;;;;;;;2.95;0.40;;;;;;;;;;5041928;28;20444;-85
2022/01/30 02:28:26;;;;;;;4.18;0.75;;;;;;;;;;5024617;28;20029;-83
2022/01/30 02:31:01;;;;;;;8.45;1.05;;;;;;;;;;5042733;28;20025;-84
2022/01/30 02:33:26;;;;;;;8.13;1.00;;;;;;;;;;5042916;28;20069;-83
2022/01/30 02:35:51;;;;;;;5.15;0.98;;;;;;;;;;5042596;28;20021;-84
2022/01/30 02:38:20;;;;;;;4.78;0.90;;;;;;;;;;5043030;28;20026;-85
2022/01/30 02:40:47;;;;;;;11.00;1.27;;;;;;;;;;5024235;28;20025;-84
2022/01/30 02:43:16;;;;;;;7.78;1.33;;;;;;;;;;5043521;28;20089;-85
2022/01/30 02:45:50;;;;;;;4.80;0.73;;;;;;;;;;5042553;28;20017;-84
2022/01/30 02:48:19;;;;;;;5.07;0.98;;;;;;;;;;5025107;28;20029;-84
2022/01/30 02:51:06;;;;;;;2.45;0.90;;;;;;;;;;5024615;28;20029;-84
2022/01/30 02:53:38;;;;;;;3.42;0.77;;;;;;;;;;5041537;28;20056;-83
2022/01/30 02:56:03;;;;;;;5.28;1.20;;;;;;;;;;5041590;28;20037;-84
2022/01/30 02:58:29;;;;;;;6.90;1.05;;;;;;;;;;5024632;28;20104;-83
2022/01/30 03:00:54;;;;;;;4.15;1.00;;;;;;;;;;5025284;28;20037;-82
2022/01/30 03:03:20;;;;;;;4.60;0.70;;;;;;;;;;5042393;28;20047;-84
2022/01/30 03:05:45;;;;;;;4.28;0.93;;;;;;;;;;5024699;28;20524;-83
2022/01/30 03:08:10;;;;;;;8.10;1.05;;;;;;;;;;5024856;28;20076;-84
2022/01/30 03:10:36;;;;;;;6.22;1.20;;;;;;;;;;5041720;28;20057;-83
2022/01/30 03:13:01;;;;;;;5.75;1.20;;;;;;;;;;5042172;28;20045;-83
2022/01/30 03:15:26;;;;;;;4.82;1.02;;;;;;;;;;5024391;28;20493;-83
2022/01/30 03:17:51;;;;;;;4.35;0.88;;;;;;;;;;5042757;28;20030;-83
2022/01/30 03:20:17;;;;;;;9.07;1.23;;;;;;;;;;5041695;28;20033;-83
2022/01/30 03:22:42;;;;;;;8.23;1.30;;;;;;;;;;5023961;28;20510;-83
2022/01/30 03:25:07;;;;;;;8.52;1.23;;;;;;;;;;5023114;28;20032;-83
2022/01/30 03:27:33;;;;;;;6.60;1.13;;;;;;;;;;5040677;28;20060;-83
2022/01/30 03:30:06;;;;;;;4.07;0.95;;;;;;;;;;5044614;28;20029;-82
2022/01/30 03:32:32;;;;;;;8.13;1.38;;;;;;;;;;5046169;28;20056;-85
2022/01/30 03:34:58;;;;;;;5.78;1.02;;;;;;;;;;5029532;28;20033;-84
2022/01/30 03:37:23;;;;;;;8.70;1.30;;;;;;;;;;5028625;28;20030;-83
2022/01/30 03:39:48;;;;;;;9.23;1.45;;;;;;;;;;5046482;28;20109;-82
2022/01/30 03:42:13;;;;;;;8.50;0.88;;;;;;;;;;5045813;28;20532;-83
2022/01/30 03:44:39;;;;;;;8.15;1.50;;;;;;;;;;5045056;28;20021;-84
2022/01/30 03:47:04;;;;;;;5.63;1.20;;;;;;;;;;5046980;28;20026;-84
2022/01/30 03:49:31;;;;;;;6.63;1.30;;;;;;;;;;5028272;28;20441;-83
2022/01/30 03:51:56;;;;;;;9.57;1.95;;;;;;;;;;5027909;28;20025;-85
2022/01/30 03:54:21;;;;;;;5.90;1.10;;;;;;;;;;5028790;28;20056;-85
2022/01/30 03:56:47;;;;;;;6.22;0.98;;;;;;;;;;5030067;28;20021;-84
2022/01/30 03:59:12;;;;;;;5.85;1.17;;;;;;;;;;5029240;28;20052;-83
2022/01/30 04:01:38;;;;;;;6.57;1.13;;;;;;;;;;5046246;28;20036;-82
2022/01/30 04:04:03;;;;;;;10.13;1.30;;;;;;;;;;5029325;28;20033;-82
2022/01/30 04:06:29;;;;;;;8.00;1.33;;;;;;;;;;5047734;28;20491;-82
2022/01/30 04:08:54;;;;;;;4.00;0.98;;;;;;;;;;5028231;28;20029;-83
2022/01/30 04:11:20;;;;;;;4.38;0.80;;;;;;;;;;5046367;28;20029;-82
2022/01/30 04:13:45;;;;;;;6.18;1.35;;;;;;;;;;5028750;28;20025;-83
2022/01/30 04:16:11;;;;;;;7.40;1.38;;;;;;;;;;5044638;28;20037;-85
2022/01/30 04:18:36;;;;;;;10.32;1.60;;;;;;;;;;5027236;28;20025;-84
2022/01/30 04:21:02;;;;;;;7.20;1.52;;;;;;;;;;5028075;28;20061;-83
2022/01/30 04:23:27;;;;;;;7.75;1.10;;;;;;;;;;5045195;28;20040;-85
2022/01/30 04:25:52;;;;;;;4.30;0.90;;;;;;;;;;5047431;28;20031;-85
2022/01/30 04:28:19;;;;;;;7.25;1.17;;;;;;;;;;5046917;28;20036;-84
2022/01/30 04:30:45;;;;;;;6.90;1.40;;;;;;;;;;5028195;28;20041;-83
2022/01/30 04:33:11;;;;;;;11.20;1.65;;;;;;;;;;5027045;28;20025;-81
2022/01/30 04:35:36;;;;;;;14.05;1.42;;;;;;;;;;5044694;28;20029;-82
2022/01/30 04:38:17;;;;;;;5.57;1.02;;;;;;;;;;5045370;28;20029;-83
2022/01/30 04:41:18;;;;;;;3.97;0.90;;;;;;;;;;5025667;28;20049;-84
2022/01/30 04:52:35;;;;;;;6.40;0.82;;;;;;;;;;5044275;28;20041;-83
2022/01/30 05:08:05;;;;;;;2.50;0.70;;;;;;;;;;5044777;28;20029;-83
2022/01/30 05:10:31;;;;;;;8.57;1.63;;;;;;;;;;5044051;28;20025;-85
2022/01/30 05:12:58;;;;;;;7.20;1.40;;;;;;;;;;5025696;28;20116;-83
2022/01/30 05:15:27;;;;;;;6.25;1.23;;;;;;;;;;5024518;28;20080;-86
2022/01/30 05:17:52;;;;;;;5.60;1.02;;;;;;;;;;5043221;28;20021;-83
2022/01/30 05:20:17;;;;;;;6.78;1.50;;;;;;;;;;5044618;28;20031;-82
2022/01/30 05:22:43;;;;;;;6.30;1.00;;;;;;;;;;5026237;28;20026;-83
2022/01/30 05:25:09;;;;;;;7.53;1.38;;;;;;;;;;5025212;28;20032;-81
2022/01/30 05:27:35;;;;;;;2.60;0.80;;;;;;;;;;5042040;28;20394;-84
2022/01/30 05:30:00;;;;;;;5.97;1.15;;;;;;;;;;5043333;28;20033;-82
2022/01/30 05:32:26;;;;;;;7.30;1.08;;;;;;;;;;5042911;28;20033;-82
2022/01/30 05:34:52;;;;;;;2.88;0.68;;;;;;;;;;5023816;28;20091;-82
2022/01/30 05:37:18;;;;;;;6.13;0.98;;;;;;;;;;5042308;28;20025;-83
2022/01/30 05:39:45;;;;;;;6.40;1.10;;;;;;;;;;5043126;28;20033;-84
2022/01/30 05:42:12;;;;;;;2.88;1.00;;;;;;;;;;5041964;28;20029;-84
2022/01/30 05:44:52;;;;;;;7.72;1.30;;;;;;;;;;5025835;28;20048;-83
2022/01/30 05:47:29;;;;;;;3.88;1.02;;;;;;;;;;5042911;28;20024;-83
2022/01/30 05:49:54;;;;;;;3.28;0.98;;;;;;;;;;5041761;28;20031;-83
2022/01/30 05:52:21;;;;;;;8.00;1.00;;;;;;;;;;5024958;28;20029;-83
2022/01/30 05:54:47;;;;;;;5.07;0.82;;;;;;;;;;5042613;28;20048;-83
2022/01/30 05:57:12;;;;;;;4.32;1.10;;;;;;;;;;5024904;28;20017;-85
2022/01/30 05:59:38;;;;;;;7.60;1.30;;;;;;;;;;5043873;28;20452;-82
2022/01/30 06:02:03;;;;;;;8.18;1.08;;;;;;;;;;5042843;28;20025;-83
2022/01/30 06:04:28;;;;;;;4.55;0.90;;;;;;;;;;5042300;28;20026;-85
2022/01/30 06:06:55;;;;;;;6.03;1.25;;;;;;;;;;5024319;28;20085;-83
2022/01/30 06:09:21;;;;;;;5.22;0.90;;;;;;;;;;5024500;28;20022;-83
2022/01/30 06:11:52;;;;;;;9.10;1.55;;;;;;;;;;5042927;28;20051;-81
2022/01/30 06:14:22;;;;;;;8.07;1.02;;;;;;;;;;5043521;28;20029;-84
2022/01/30 06:16:49;;;;;;;5.22;1.13;;;;;;;;;;5043900;28;20028;-84
2022/01/30 06:19:14;;;;;;;8.82;2.05;;;;;;;;;;5025649;28;20032;-82
2022/01/30 06:21:39;;;;;;;4.82;1.05;;;;;;;;;;5025809;28;20096;-83
2022/01/30 06:24:05;;;;;;;7.78;1.17;;;;;;;;;;5025095;28;20031;-84
2022/01/30 06:26:30;;;;;;;8.18;1.27;;;;;;;;;;5026762;28;20053;-84
2022/01/30 06:28:55;;;;;;;3.90;0.90;;;;;;;;;;5027216;28;20026;-83
2022/01/30 06:31:22;;;;;;;6.40;1.13;;;;;;;;;;5043259;28;20098;-84
2022/01/30 06:33:47;;;;;;;9.82;1.48;;;;;;;;;;5027197;28;20045;-84
2022/01/30 06:36:12;;;;;;;5.78;1.25;;;;;;;;;;5025699;28;20079;-85
2022/01/30 06:38:38;;;;;;;6.65;1.30;;;;;;;;;;5024095;28;20371;-86
2022/01/30 06:41:04;;;;;;;4.75;1.23;;;;;;;;;;5027301;28;20046;-84
2022/01/30 06:43:29;;;;;;;8.05;1.88;;;;;;;;;;5026586;28;20032;-85
2022/01/30 06:45:55;;;;;;;4.82;0.70;;;;;;;;;;5028487;28;20024;-83
2022/01/30 06:48:21;;;;;;;7.47;1.10;;;;;;;;;;5027111;28;20406;-84
2022/01/30 06:50:46;;;;;;;7.18;1.38;;;;;;;;;;5043922;28;20025;-85
2022/01/30 06:53:12;;;;;;;7.55;1.40;;;;;;;;;;5044098;28;20081;-82
2022/01/30 06:55:42;;;;;;;9.25;1.60;;;;;;;;;;5044980;28;20026;-86
2022/01/30 06:58:12;;;;;;;6.22;1.10;;;;;;;;;;5029183;28;20025;-84
2022/01/30 07:00:38;;;;;;;5.78;1.00;;;;;;;;;;5045315;28;20035;-86
2022/01/30 07:03:03;;;;;;;9.07;2.03;;;;;;;;;;5027471;28;20056;-85
2022/01/30 07:05:28;;;;;;;7.82;1.35;;;;;;;;;;5047769;28;20398;-81
2022/01/30 07:07:54;;;;;;;8.15;0.70;;;;;;;;;;5028862;28;20017;-84
2022/01/30 07:10:20;;;;;;;8.68;1.30;;;;;;;;;;5029628;28;20076;-85
2022/01/30 07:12:45;;;;;;;7.45;1.52;;;;;;;;;;5027636;28;20034;-84
2022/01/30 07:15:11;;;;;;;4.38;1.05;;;;;;;;;;5048974;28;20032;-84
2022/01/30 07:17:36;;;;;;;11.00;1.50;;;;;;;;;;5048280;28;20041;-83
2022/01/30 07:20:03;;;;;;;4.85;1.10;;;;;;;;;;5049412;28;20025;-84
2022/01/30 07:22:28;;;;;;;8.00;1.30;;;;;;;;;;5050742;28;20033;-84
2022/01/30 07:24:54;;;;;;;7.22;1.52;;;;;;;;;;5032046;28;20037;-84
2022/01/30 07:27:20;;;;;;;5.57;1.10;;;;;;;;;;5027196;28;20018;-84
2022/01/30 07:29:45;;;;;;;8.60;1.60;;;;;;;;;;5045646;28;20035;-83
2022/01/30 07:32:10;;;;;;;12.82;1.20;;;;;;;;;;5027935;28;20026;-81
2022/01/30 07:34:38;;;;;;;7.43;1.45;;;;;;;;;;5046238;28;20072;-85
2022/01/30 07:37:04;;;;;;;8.05;1.40;;;;;;;;;;5044625;28;20030;-84
2022/01/30 07:39:31;;;;;;;5.55;1.35;;;;;;;;;;5042889;28;20395;-82
2022/01/30 07:41:57;;;;;;;8.68;1.85;;;;;;;;;;5026589;28;20048;-84
2022/01/30 07:44:23;;;;;;;7.97;2.05;;;;;;;;;;5025423;28;20545;-83
2022/01/30 07:46:48;;;;;;;12.38;1.77;;;;;;;;;;5043334;28;20029;-81
2022/01/30 07:49:13;;;;;;;4.97;1.48;;;;;;;;;;5044233;28;20029;-84
2022/01/30 07:51:39;;;;;;;11.00;2.15;;;;;;;;;;5027075;28;20017;-85
2022/01/30 07:54:04;;;;;;;6.75;1.65;;;;;;;;;;5044444;28;20056;-86
2022/01/30 07:56:29;;;;;;;15.48;2.10;;;;;;;;;;5044400;28;20032;-84
2022/01/30 07:58:54;;;;;;;11.18;1.95;;;;;;;;;;5044422;28;20528;-83
2022/01/30 08:01:20;;;;;;;7.47;1.40;;;;;;;;;;5044282;28;20030;-84
2022/01/30 08:03:45;;;;;;;11.90;2.28;;;;;;;;;;5030084;28;20039;-84
2022/01/30 08:06:10;;;;;;;12.68;1.80;;;;;;;;;;5045772;28;20023;-84
2022/01/30 08:08:35;;;;;;;14.38;1.60;;;;;;;;;;5046558;28;20029;-82
2022/01/30 08:11:01;;;;;;;10.45;2.03;;;;;;;;;;5044807;28;20032;-83
2022/01/30 08:13:26;;;;;;;12.70;2.38;;;;;;;;;;5044325;28;20033;-84
2022/01/30 08:15:51;;;;;;;13.95;2.17;;;;;;;;;;5025333;28;20548;-85
2022/01/30 08:18:17;;;;;;;13.80;2.00;;;;;;;;;;5045483;28;20057;-85
2022/01/30 08:20:42;;;;;;;19.75;2.13;;;;;;;;;;5027256;28;20516;-85
2022/01/30 08:23:12;;;;;;;13.85;2.05;;;;;;;;;;5028107;28;20390;-84
2022/01/30 08:25:38;;;;;;;12.38;1.92;;;;;;;;;;5044779;28;20520;-83
2022/01/30 08:28:04;;;;;;;5.50;1.55;;;;;;;;;;5026670;28;20029;-84
2022/01/30 08:30:29;;;;;;;13.07;2.20;;;;;;;;;;5042099;28;20534;-84
2022/01/30 08:32:54;;;;;;;12.10;2.05;;;;;;;;;;5024183;28;20021;-82
2022/01/30 08:35:20;;;;;;;13.80;2.13;;;;;;;;;;5025314;28;20448;-86
2022/01/30 08:37:50;;;;;;;11.65;1.95;;;;;;;;;;5029638;28;20104;-84
2022/01/30 08:40:18;;;;;;;6.38;1.15;;;;;;;;;;5041933;28;20033;-85
2022/01/30 08:42:45;;;;;;;14.90;1.77;;;;;;;;;;5026478;28;20040;-83
2022/01/30 08:45:12;;;;;;;10.48;2.15;;;;;;;;;;5027098;28;20091;-84
2022/01/30 08:47:40;;;;;;;7.80;1.40;;;;;;;;;;5025599;28;20550;-84
2022/01/30 08:50:06;;;;;;;6.68;1.60;;;;;;;;;;5025506;28;20025;-83
2022/01/30 08:52:32;;;;;;;11.20;1.88;;;;;;;;;;5044187;28;20486;-86
2022/01/30 08:54:57;;;;;;;6.90;1.70;;;;;;;;;;5024624;28;20032;-81
2022/01/30 08:57:22;;;;;;;5.75;1.33;;;;;;;;;;5024507;28;20428;-84
2022/01/30 08:59:47;;;;;;;12.20;1.90;;;;;;;;;;5024624;28;20433;-82
2022/01/30 09:02:13;;;;;;;10.00;1.50;;;;;;;;;;5042748;28;20136;-82
2022/01/30 09:04:38;;;;;;;9.85;1.73;;;;;;;;;;5043639;28;20054;-83
2022/01/30 09:07:04;;;;;;;15.25;2.22;;;;;;;;;;5044492;28;20024;-84
2022/01/30 09:09:30;;;;;;;9.50;1.60;;;;;;;;;;5025529;28;20089;-84
2022/01/30 09:11:58;;;;;;;11.38;2.00;;;;;;;;;;5026123;28;20024;-84
2022/01/30 09:14:25;;;;;;;12.32;2.15;;;;;;;;;;5042529;28;20037;-84
2022/01/30 09:16:53;;;;;;;9.57;1.80;;;;;;;;;;5025243;28;20024;-87
2022/01/30 09:19:19;;;;;;;11.07;1.80;;;;;;;;;;5042371;28;20112;-83
2022/01/30 09:21:46;;;;;;;10.73;1.40;;;;;;;;;;5044128;28;20021;-82
2022/01/30 09:24:12;;;;;;;5.53;1.35;;;;;;;;;;5024659;28;20030;-85
2022/01/30 09:26:37;;;;;;;11.32;1.50;;;;;;;;;;5043655;28;20028;-85
2022/01/30 09:29:02;;;;;;;7.40;2.05;;;;;;;;;;5040377;28;20025;-82
2022/01/30 09:31:27;;;;;;;18.10;2.53;;;;;;;;;;5023957;28;20055;-84
2022/01/30 09:33:53;;;;;;;11.40;1.48;;;;;;;;;;5044375;28;20505;-84
2022/01/30 09:36:18;;;;;;;10.98;1.77;;;;;;;;;;5023850;28;20021;-83
2022/01/30 09:38:44;;;;;;;8.55;1.88;;;;;;;;;;5040831;28;20064;-83
2022/01/30 09:41:09;;;;;;;3.75;1.13;;;;;;;;;;5040458;28;20026;-84
2022/01/30 09:43:38;;;;;;;9.40;1.27;;;;;;;;;;5023119;28;20021;-84
2022/01/30 09:46:04;;;;;;;10.45;1.23;;;;;;;;;;5021979;28;20494;-85
2022/01/30 09:48:34;;;;;;;5.60;1.27;;;;;;;;;;5041810;28;20032;-87
2022/01/30 09:51:01;;;;;;;12.43;2.10;;;;;;;;;;5039867;28;20029;-84
2022/01/30 09:53:27;;;;;;;9.45;1.60;;;;;;;;;;5041009;28;20030;-85
2022/01/30 09:55:52;;;;;;;10.88;1.75;;;;;;;;;;5023989;28;20028;-85
2022/01/30 09:58:17;;;;;;;13.35;2.85;;;;;;;;;;5040332;28;20030;-85
2022/01/30 10:00:45;;;;;;;13.73;1.58;;;;;;;;;;5023915;28;20073;-84
2022/01/30 10:03:12;;;;;;;16.73;2.63;;;;;;;;;;5040837;28;20381;-84
2022/01/30 10:06:02;;;;;;;7.63;1.75;;;;;;;;;;5022395;28;20022;-84
2022/01/30 10:08:28;;;;;;;10.70;2.38;;;;;;;;;;5040143;28;20025;-84
2022/01/30 10:11:00;;;;;;;8.50;1.55;;;;;;;;;;5040527;28;20037;-84
2022/01/30 10:13:31;;;;;;;11.20;2.13;;;;;;;;;;5023453;28;20068;-86
2022/01/30 10:16:03;;;;;;;21.00;3.33;;;;;;;;;;5023046;28;20083;-84
2022/01/30 10:18:32;;;;;;;16.15;2.05;;;;;;;;;;5038842;28;20052;-81
2022/01/30 10:20:57;;;;;;;11.80;1.92;;;;;;;;;;5035795;28;20052;-78
2022/01/30 10:23:34;;;;;;;8.23;1.50;;;;;;;;;;5036279;28;20025;-81
2022/01/30 10:26:01;;;;;;;17.83;2.30;;;;;;;;;;5018103;28;20052;-79
2022/01/30 10:28:31;;;;;;;6.35;1.50;;;;;;;;;;5017827;28;20037;-85
2022/01/30 10:31:01;;;;;;;11.40;2.40;;;;;;;;;;5019528;28;20025;-78
2022/01/30 10:33:45;;;;;;;12.40;1.77;;;;;;;;;;5038819;28;20109;-83
2022/01/30 10:36:12;;;;;;;9.70;2.40;;;;;;;;;;5022607;28;20554;-83
2022/01/30 10:38:47;;;;;;;10.77;1.75;;;;;;;;;;5044848;28;20041;-84
2022/01/30 10:41:18;;;;;;;15.55;2.63;;;;;;;;;;5045988;28;20028;-82
2022/01/30 10:44:05;;;;;;;14.80;1.77;;;;;;;;;;5050478;28;20022;-84
2022/01/30 10:46:51;;;;;;;7.22;1.48;;;;;;;;;;5049205;28;20025;-81
2022/01/30 10:49:19;;;;;;;19.75;2.40;;;;;;;;;;5044930;28;20479;-83
2022/01/30 10:51:52;;;;;;;5.63;1.10;;;;;;;;;;5026427;28;20117;-85
2022/01/30 10:54:18;;;;;;;8.68;1.70;;;;;;;;;;5044619;28;20033;-84
2022/01/30 10:56:43;;;;;;;10.95;2.22;;;;;;;;;;5029280;28;20033;-83
2022/01/30 10:59:22;;;;;;;18.58;2.17;;;;;;;;;;5047768;28;20044;-84
2022/01/30 11:01:52;;;;;;;8.00;1.58;;;;;;;;;;5048041;28;20040;-84
2022/01/30 11:04:22;;;;;;;16.17;2.33;;;;;;;;;;5027878;28;20025;-84
2022/01/30 11:06:48;;;;;;;16.42;2.42;;;;;;;;;;5048206;28;20022;-82
2022/01/30 11:09:18;;;;;;;13.38;2.10;;;;;;;;;;5029412;28;20091;-81
2022/01/30 11:11:49;;;;;;;15.25;2.28;;;;;;;;;;5030704;28;20029;-84
2022/01/30 11:14:18;;;;;;;17.45;2.90;;;;;;;;;;5031324;28;20021;-83
2022/01/30 11:16:59;;;;;;;16.05;2.20;;;;;;;;;;5029955;28;20053;-83
2022/01/30 11:19:26;;;;;;;13.20;2.35;;;;;;;;;;5029104;28;20457;-83
2022/01/30 11:21:55;;;;;;;12.35;2.03;;;;;;;;;;5047753;28;20025;-83
2022/01/30 11:24:27;;;;;;;19.67;2.85;;;;;;;;;;5029499;28;20183;-83
2022/01/30 11:26:52;;;;;;;8.57;1.90;;;;;;;;;;5046027;28;20025;-84
2022/01/30 11:29:20;;;;;;;7.80;1.70;;;;;;;;;;5045828;28;20362;-82
2022/01/30 11:31:46;;;;;;;12.57;2.13;;;;;;;;;;5028279;28;20028;-83
2022/01/30 11:34:12;;;;;;;14.90;1.92;;;;;;;;;;5046858;28;20079;-82
2022/01/30 11:36:42;;;;;;;16.45;2.45;;;;;;;;;;5031967;28;20013;-83
2022/01/30 11:39:12;;;;;;;21.27;2.92;;;;;;;;;;5029415;28;20025;-82
2022/01/30 11:41:38;;;;;;;15.50;2.13;;;;;;;;;;5029910;28;20029;-83
2022/01/30 11:44:19;;;;;;;12.68;2.10;;;;;;;;;;5031892;28;20048;-84
2022/01/30 11:46:57;;;;;;;9.35;1.58;;;;;;;;;;5049811;28;20030;-85
2022/01/30 11:49:24;;;;;;;16.85;2.63;;;;;;;;;;5048346;28;20021;-84
2022/01/30 11:51:53;;;;;;;7.63;2.03;;;;;;;;;;5048437;28;20076;-83
2022/01/30 11:54:37;;;;;;;16.65;2.22;;;;;;;;;;5033606;28;20035;-83
2022/01/30 11:57:23;;;;;;;12.40;2.55;;;;;;;;;;5031142;28;20021;-84
2022/01/30 11:59:57;;;;;;;14.55;2.42;;;;;;;;;;5030294;28;20068;-84
2022/01/30 12:02:34;;;;;;;17.30;2.28;;;;;;;;;;5033379;28;20026;-83
2022/01/30 12:05:07;;;;;;;8.15;1.65;;;;;;;;;;5049711;28;20030;-84
2022/01/30 12:07:47;;;;;;;20.85;2.42;;;;;;;;;;5032079;28;20017;-85
2022/01/30 12:10:15;;;;;;;11.27;2.05;;;;;;;;;;5031297;28;20052;-83
2022/01/30 12:12:55;;;;;;;15.18;2.15;;;;;;;;;;5048697;28;20486;-84
2022/01/30 12:15:52;;;;;;;9.27;1.75;;;;;;;;;;5044972;28;20037;-81
2022/01/30 12:18:44;;;;;;;13.50;2.47;;;;;;;;;;5045542;28;20078;-84
2022/01/30 12:21:14;;;;;;;24.05;2.78;;;;;;;;;;5026969;28;20092;-81
2022/01/30 12:23:41;;;;;;;8.55;2.17;;;;;;;;;;5044544;28;20029;-82
2022/01/30 12:26:15;;;;;;;18.25;2.80;;;;;;;;;;5044063;28;20026;-83
2022/01/30 12:28:48;;;;;;;11.23;2.10;;;;;;;;;;5045204;28;20057;-85
2022/01/30 12:31:34;;;;;;;8.18;1.65;;;;;;;;;;5027066;28;20029;-82
2022/01/30 12:34:15;;;;;;;5.88;1.88;;;;;;;;;;5026886;28;20029;-85
2022/01/30 12:36:43;;;;;;;19.88;2.72;;;;;;;;;;5025672;28;20022;-83
2022/01/30 12:39:21;;;;;;;15.07;2.40;;;;;;;;;;5044894;28;20029;-82
2022/01/30 12:41:46;;;;;;;12.32;2.40;;;;;;;;;;5028016;28;20048;-81
2022/01/30 12:44:14;;;;;;;15.25;2.78;;;;;;;;;;5024666;28;20022;-81
2022/01/30 12:46:48;;;;;;;15.48;2.00;;;;;;;;;;5024727;28;20017;-84
2022/01/30 12:49:15;;;;;;;16.77;2.83;;;;;;;;;;5025637;28;20025;-81
2022/01/30 12:51:43;;;;;;;13.63;2.75;;;;;;;;;;5026828;28;20028;-81
2022/01/30 12:54:09;;;;;;;11.27;2.28;;;;;;;;;;5025262;28;20032;-84
2022/01/30 12:56:36;;;;;;;11.13;1.92;;;;;;;;;;5026785;28;20021;-81
2022/01/30 12:59:06;;;;;;;18.00;2.78;;;;;;;;;;5043548;28;20399;-82
2022/01/30 13:01:43;;;;;;;16.88;3.05;;;;;;;;;;5025766;28;20030;-81
2022/01/30 13:04:11;;;;;;;14.45;2.55;;;;;;;;;;5026557;28;20029;-82
2022/01/30 13:06:45;;;;;;;12.80;1.88;;;;;;;;;;5044152;28;20077;-82
2022/01/30 13:09:11;;;;;;;12.85;2.28;;;;;;;;;;5027016;28;20556;-83
2022/01/30 13:11:37;;;;;;;15.00;2.15;;;;;;;;;;5025014;28;20021;-83
2022/01/30 13:14:08;;;;;;;12.75;2.20;;;;;;;;;;5043394;28;20367;-83
2022/01/30 13:16:39;;;;;;;18.55;3.05;;;;;;;;;;5028269;28;20048;-83
2022/01/30 13:19:10;;;;;;;15.98;2.58;;;;;;;;;;5049056;28;20060;-84
2022/01/30 13:21:37;;;;;;;17.67;2.60;;;;;;;;;;5029807;28;20025;-86
2022/01/30 13:24:04;;;;;;;16.42;2.78;;;;;;;;;;5027158;28;20021;-85
2022/01/30 13:26:31;;;;;;;14.38;2.60;;;;;;;;;;5025554;28;20037;-82
2022/01/30 13:28:56;;;;;;;20.10;2.67;;;;;;;;;;5045272;28;20026;-83
2022/01/30 13:31:21;;;;;;;12.52;2.75;;;;;;;;;;5026200;28;20048;-83
2022/01/30 13:34:06;;;;;;;16.08;2.60;;;;;;;;;;5041581;28;20092;-83
2022/01/30 13:36:32;;;;;;;14.02;2.30;;;;;;;;;;5025983;28;20021;-84
2022/01/30 13:38:57;;;;;;;23.48;2.53;;;;;;;;;;5029630;28;20522;-84
2022/01/30 13:41:26;;;;;;;14.32;2.50;;;;;;;;;;5043838;28;20546;-84
2022/01/30 13:43:57;;;;;;;12.93;2.50;;;;;;;;;;5023739;28;20033;-82
2022/01/30 13:49:10;;;;;;;24.73;2.60;;;;;;;;;;5039967;28;20040;-82
2022/01/30 13:51:35;;;;;;;15.27;3.15;;;;;;;;;;5026114;28;20026;-84
2022/01/30 13:54:05;;;;;;;24.25;3.72;;;;;;;;;;5043913;28;20033;-82
2022/01/30 13:56:30;;;;;;;12.95;1.98;;;;;;;;;;5027806;28;20089;-83
2022/01/30 13:58:58;;;;;;;16.00;2.47;;;;;;;;;;5046155;28;20037;-83
2022/01/30 14:01:30;;;;;;;25.15;3.35;;;;;;;;;;5027323;28;20052;-82
2022/01/30 14:04:10;;;;;;;11.98;1.98;;;;;;;;;;5023700;28;20057;-84
2022/01/30 14:06:37;;;;;;;15.13;2.10;;;;;;;;;;5022723;28;20525;-85
2022/01/30 14:09:09;;;;;;;15.85;2.58;;;;;;;;;;5025971;28;20025;-83
2022/01/30 14:11:37;;;;;;;19.25;2.53;;;;;;;;;;5026057;28;20033;-83
2022/01/30 14:14:09;;;;;;;25.45;3.38;;;;;;;;;;5021467;28;20032;-86
2022/01/30 14:16:41;;;;;;;24.15;2.88;;;;;;;;;;5026017;28;20025;-82
2022/01/30 14:19:20;;;;;;;25.60;3.22;;;;;;;;;;5040113;28;20398;-84
2022/01/30 14:21:48;;;;;;;13.00;2.78;;;;;;;;;;5022626;28;20032;-84
2022/01/30 14:24:14;;;;;;;10.57;2.28;;;;;;;;;;5021675;28;20112;-83
2022/01/30 14:26:39;;;;;;;17.80;3.53;;;;;;;;;;5042100;28;20542;-82
2022/01/30 14:29:22;;;;;;;19.65;3.17;;;;;;;;;;5040618;28;20069;-84
2022/01/30 14:31:55;;;;;;;11.25;2.60;;;;;;;;;;5042245;28;20062;-84
2022/01/30 14:34:22;;;;;;;18.08;3.03;;;;;;;;;;5040839;28;20021;-84
2022/01/30 14:36:47;;;;;;;22.88;2.55;;;;;;;;;;5022851;28;20021;-83
2022/01/30 14:39:13;;;;;;;23.55;2.50;;;;;;;;;;5040926;28;20036;-83
2022/01/30 14:41:39;;;;;;;13.35;2.03;;;;;;;;;;5041102;28;20033;-82
2022/01/30 14:44:04;;;;;;;17.45;2.75;;;;;;;;;;5040214;28;20021;-81
2022/01/30 14:46:30;;;;;;;23.25;3.30;;;;;;;;;;5023119;28;20482;-82
2022/01/30 14:48:55;;;;;;;13.52;2.83;;;;;;;;;;5039330;28;20036;-82
2022/01/30 14:51:20;;;;;;;16.55;3.13;;;;;;;;;;5022905;28;20467;-81
2022/01/30 14:53:46;;;;;;;8.90;2.00;;;;;;;;;;5005548;28;20470;-84
2022/01/30 14:56:11;;;;;;;12.70;2.35;;;;;;;;;;5021297;28;20017;-83
2022/01/30 14:58:36;;;;;;;21.63;3.97;;;;;;;;;;5039591;28;20029;-82
2022/01/30 15:01:02;;;;;;;19.83;3.13;;;;;;;;;;5020892;28;20416;-86
2022/01/30 15:03:31;;;;;;;26.35;2.95;;;;;;;;;;5021338;28;20025;-84
2022/01/30 15:05:56;;;;;;;17.58;2.50;;;;;;;;;;5039300;28;20097;-83
2022/01/30 15:08:21;;;;;;;18.20;3.25;;;;;;;;;;5024748;28;20048;-83
2022/01/30 15:10:47;;;;;;;27.10;4.40;;;;;;;;;;5044343;28;20533;-83
2022/01/30 15:13:13;;;;;;;12.90;2.08;;;;;;;;;;5025517;28;20048;-84
2022/01/30 15:15:39;;;;;;;21.63;3.45;;;;;;;;;;5024779;28;20044;-84
2022/01/30 15:18:12;;;;;;;19.00;3.70;;;;;;;;;;5027215;28;20025;-81
2022/01/30 15:20:38;;;;;;;19.80;3.10;;;;;;;;;;5027745;28;20093;-83
2022/01/30 15:23:03;;;;;;;22.77;3.20;;;;;;;;;;5027455;28;20044;-83
2022/01/30 15:25:28;;;;;;;21.25;2.45;;;;;;;;;;5046395;28;20029;-84
2022/01/30 15:27:54;;;;;;;9.18;2.20;;;;;;;;;;5027781;28;20120;-84
2022/01/30 15:30:19;;;;;;;18.40;2.88;;;;;;;;;;5048188;28;20083;-84
2022/01/30 15:32:44;;;;;;;22.13;2.85;;;;;;;;;;5030151;28;20037;-81
2022/01/30 15:35:10;;;;;;;9.95;1.95;;;;;;;;;;5026235;28;20025;-83
2022/01/30 15:37:35;;;;;;;18.83;2.90;;;;;;;;;;5027818;28;20076;-86